Harvey Cedars Boro, New Jersey
Current Conditions -  °F | °C
As of 7:55 PM on Saturday 25 Oct 2014 (Local Time) from KMJX Reporting Station
Clear Clear  
Wind Chill: 57°   Ceiling: Unl
Heat Index: 57°   Visibility: 10mi
Dew Point: 45°   Wind: 5mph
Humidity: 63%   Direction: 230°SW
Pressure: 29.69"   Gusts: NA
Location:  39.623°N, 74.1974°W
Report Text: KMJX 252355Z AUTO 23004KT 10SM CLR 14/07 A2969 RMK AO1 10200 20130 402000030 57007
Loading
Personal Weather Stations






























Interactive Weather Map
Tropical Storm Tracking
New forecast layout! Learn more

10-Day Weather Forecast

Advertisements
Track Severe Weather on mobile